sensor_id;sensor_type;location;lat;lon;timestamp;P1;durP1;ratioP1;P2;durP2;ratioP2
5678;SDS011;2862;52.560;13.566;2023-05-07T00:07:43;33.93;;;16.47;;
5678;SDS011;2862;52.560;13.566;2023-05-07T00:17:47;35.13;;;15.37;;
5678;SDS011;2862;52.560;13.566;2023-05-07T00:27:51;32.67;;;15.83;;
5678;SDS011;2862;52.560;13.566;2023-05-07T00:37:56;34.17;;;15.90;;
5678;SDS011;2862;52.560;13.566;2023-05-07T00:48:00;32.10;;;16.53;;
5678;SDS011;2862;52.560;13.566;2023-05-07T00:58:06;31.90;;;15.67;;
5678;SDS011;2862;52.560;13.566;2023-05-07T01:08:09;35.80;;;16.87;;
5678;SDS011;2862;52.560;13.566;2023-05-07T01:18:15;33.20;;;16.70;;
5678;SDS011;2862;52.560;13.566;2023-05-07T01:28:21;30.33;;;15.97;;
5678;SDS011;2862;52.560;13.566;2023-05-07T01:38:24;32.17;;;15.83;;
5678;SDS011;2862;52.560;13.566;2023-05-07T01:48:30;37.03;;;14.70;;
5678;SDS011;2862;52.560;13.566;2023-05-07T01:58:33;32.90;;;14.70;;
5678;SDS011;2862;52.560;13.566;2023-05-07T02:08:38;34.00;;;16.77;;
5678;SDS011;2862;52.560;13.566;2023-05-07T02:18:42;36.20;;;14.03;;
5678;SDS011;2862;52.560;13.566;2023-05-07T02:28:47;29.93;;;14.33;;
5678;SDS011;2862;52.560;13.566;2023-05-07T02:38:50;35.20;;;15.30;;
5678;SDS011;2862;52.560;13.566;2023-05-07T02:48:55;30.57;;;14.27;;
5678;SDS011;2862;52.560;13.566;2023-05-07T02:58:58;43.03;;;13.93;;
5678;SDS011;2862;52.560;13.566;2023-05-07T03:09:07;27.57;;;12.93;;
5678;SDS011;2862;52.560;13.566;2023-05-07T03:19:11;33.27;;;13.97;;
5678;SDS011;2862;52.560;13.566;2023-05-07T03:29:15;29.47;;;13.70;;
5678;SDS011;2862;52.560;13.566;2023-05-07T03:39:19;31.00;;;12.00;;
5678;SDS011;2862;52.560;13.566;2023-05-07T03:49:23;34.23;;;12.27;;
5678;SDS011;2862;52.560;13.566;2023-05-07T03:59:27;26.43;;;11.07;;
5678;SDS011;2862;52.560;13.566;2023-05-07T04:09:32;29.20;;;11.17;;
5678;SDS011;2862;52.560;13.566;2023-05-07T04:19:38;27.10;;;11.67;;
5678;SDS011;2862;52.560;13.566;2023-05-07T04:29:50;24.87;;;10.27;;
5678;SDS011;2862;52.560;13.566;2023-05-07T04:39:53;24.47;;;8.67;;
5678;SDS011;2862;52.560;13.566;2023-05-07T04:49:59;24.47;;;9.77;;
5678;SDS011;2862;52.560;13.566;2023-05-07T05:00:02;23.73;;;9.47;;
5678;SDS011;2862;52.560;13.566;2023-05-07T05:10:13;22.83;;;8.80;;
5678;SDS011;2862;52.560;13.566;2023-05-07T05:20:18;21.03;;;6.67;;
5678;SDS011;2862;52.560;13.566;2023-05-07T05:30:24;24.07;;;7.30;;
5678;SDS011;2862;52.560;13.566;2023-05-07T05:40:29;29.53;;;8.70;;
5678;SDS011;2862;52.560;13.566;2023-05-07T05:50:35;26.47;;;7.90;;
5678;SDS011;2862;52.560;13.566;2023-05-07T06:00:40;21.90;;;7.40;;
5678;SDS011;2862;52.560;13.566;2023-05-07T06:10:45;23.03;;;6.93;;
5678;SDS011;2862;52.560;13.566;2023-05-07T06:20:50;20.90;;;6.10;;
5678;SDS011;2862;52.560;13.566;2023-05-07T06:31:11;24.80;;;7.93;;
5678;SDS011;2862;52.560;13.566;2023-05-07T06:41:19;23.23;;;7.40;;
5678;SDS011;2862;52.560;13.566;2023-05-07T06:51:25;19.77;;;5.70;;
5678;SDS011;2862;52.560;13.566;2023-05-07T07:01:29;20.50;;;5.33;;
5678;SDS011;2862;52.560;13.566;2023-05-07T07:11:36;20.67;;;5.30;;
5678;SDS011;2862;52.560;13.566;2023-05-07T07:21:40;28.23;;;5.57;;
5678;SDS011;2862;52.560;13.566;2023-05-07T07:31:47;20.13;;;4.80;;
5678;SDS011;2862;52.560;13.566;2023-05-07T07:41:52;17.90;;;3.10;;
5678;SDS011;2862;52.560;13.566;2023-05-07T07:51:57;16.03;;;3.00;;
5678;SDS011;2862;52.560;13.566;2023-05-07T08:02:02;20.40;;;4.13;;
5678;SDS011;2862;52.560;13.566;2023-05-07T08:12:09;17.00;;;2.10;;
5678;SDS011;2862;52.560;13.566;2023-05-07T08:22:13;14.57;;;2.13;;
5678;SDS011;2862;52.560;13.566;2023-05-07T08:32:17;21.57;;;3.27;;
5678;SDS011;2862;52.560;13.566;2023-05-07T08:42:21;14.80;;;1.53;;
5678;SDS011;2862;52.560;13.566;2023-05-07T08:52:28;17.73;;;2.00;;
5678;SDS011;2862;52.560;13.566;2023-05-07T09:02:31;19.73;;;1.90;;
5678;SDS011;2862;52.560;13.566;2023-05-07T09:12:35;15.60;;;1.87;;
5678;SDS011;2862;52.560;13.566;2023-05-07T09:22:40;17.63;;;2.13;;
5678;SDS011;2862;52.560;13.566;2023-05-07T09:32:47;17.90;;;1.97;;
5678;SDS011;2862;52.560;13.566;2023-05-07T09:42:54;14.80;;;1.13;;
5678;SDS011;2862;52.560;13.566;2023-05-07T09:53:00;14.00;;;0.80;;
5678;SDS011;2862;52.560;13.566;2023-05-07T10:03:03;15.93;;;1.27;;
5678;SDS011;2862;52.560;13.566;2023-05-07T10:13:17;15.20;;;0.60;;
5678;SDS011;2862;52.560;13.566;2023-05-07T10:23:24;22.73;;;0.80;;
5678;SDS011;2862;52.560;13.566;2023-05-07T10:33:34;15.70;;;1.30;;
5678;SDS011;2862;52.560;13.566;2023-05-07T10:43:39;16.00;;;1.13;;
5678;SDS011;2862;52.560;13.566;2023-05-07T10:54:03;14.00;;;0.50;;
5678;SDS011;2862;52.560;13.566;2023-05-07T11:04:30;14.40;;;0.80;;
5678;SDS011;2862;52.560;13.566;2023-05-07T11:14:48;14.17;;;0.90;;
5678;SDS011;2862;52.560;13.566;2023-05-07T11:25:07;13.53;;;0.60;;
5678;SDS011;2862;52.560;13.566;2023-05-07T11:35:11;14.00;;;0.80;;
5678;SDS011;2862;52.560;13.566;2023-05-07T11:45:22;16.03;;;0.70;;
5678;SDS011;2862;52.560;13.566;2023-05-07T11:55:28;13.83;;;0.70;;
5678;SDS011;2862;52.560;13.566;2023-05-07T12:05:31;14.47;;;0.70;;
5678;SDS011;2862;52.560;13.566;2023-05-07T12:15:36;12.70;;;0.40;;
5678;SDS011;2862;52.560;13.566;2023-05-07T12:25:39;13.23;;;0.60;;
5678;SDS011;2862;52.560;13.566;2023-05-07T12:35:49;13.10;;;0.50;;
5678;SDS011;2862;52.560;13.566;2023-05-07T12:45:53;13.57;;;0.40;;
5678;SDS011;2862;52.560;13.566;2023-05-07T12:55:59;12.63;;;0.40;;
5678;SDS011;2862;52.560;13.566;2023-05-07T13:06:07;16.53;;;0.60;;
5678;SDS011;2862;52.560;13.566;2023-05-07T13:16:15;14.80;;;1.00;;
5678;SDS011;2862;52.560;13.566;2023-05-07T13:26:18;13.87;;;0.40;;
5678;SDS011;2862;52.560;13.566;2023-05-07T13:36:27;13.50;;;0.40;;
5678;SDS011;2862;52.560;13.566;2023-05-07T13:46:35;14.30;;;1.03;;
5678;SDS011;2862;52.560;13.566;2023-05-07T13:56:40;18.07;;;0.50;;
5678;SDS011;2862;52.560;13.566;2023-05-07T14:06:43;14.80;;;0.63;;
5678;SDS011;2862;52.560;13.566;2023-05-07T14:16:48;15.57;;;0.60;;
5678;SDS011;2862;52.560;13.566;2023-05-07T14:26:52;13.33;;;0.50;;
5678;SDS011;2862;52.560;13.566;2023-05-07T14:36:57;11.63;;;0.30;;
5678;SDS011;2862;52.560;13.566;2023-05-07T14:47:01;14.20;;;0.47;;
5678;SDS011;2862;52.560;13.566;2023-05-07T14:57:08;12.73;;;0.30;;
5678;SDS011;2862;52.560;13.566;2023-05-07T15:07:11;13.60;;;0.37;;
5678;SDS011;2862;52.560;13.566;2023-05-07T15:17:17;15.57;;;0.40;;
5678;SDS011;2862;52.560;13.566;2023-05-07T15:27:20;14.23;;;0.30;;
5678;SDS011;2862;52.560;13.566;2023-05-07T15:37:24;12.77;;;0.30;;
5678;SDS011;2862;52.560;13.566;2023-05-07T15:47:27;13.13;;;0.40;;
5678;SDS011;2862;52.560;13.566;2023-05-07T15:57:31;12.37;;;0.30;;
5678;SDS011;2862;52.560;13.566;2023-05-07T16:07:35;13.00;;;0.40;;
5678;SDS011;2862;52.560;13.566;2023-05-07T16:17:39;13.70;;;0.40;;
5678;SDS011;2862;52.560;13.566;2023-05-07T16:27:43;13.83;;;0.40;;
5678;SDS011;2862;52.560;13.566;2023-05-07T16:37:47;14.83;;;0.40;;
5678;SDS011;2862;52.560;13.566;2023-05-07T16:47:50;19.53;;;3.13;;
5678;SDS011;2862;52.560;13.566;2023-05-07T16:57:55;17.60;;;1.40;;
5678;SDS011;2862;52.560;13.566;2023-05-07T17:07:58;13.83;;;0.40;;
5678;SDS011;2862;52.560;13.566;2023-05-07T17:18:02;12.83;;;0.33;;
5678;SDS011;2862;52.560;13.566;2023-05-07T17:28:06;14.10;;;0.40;;
5678;SDS011;2862;52.560;13.566;2023-05-07T17:38:10;13.10;;;0.47;;
5678;SDS011;2862;52.560;13.566;2023-05-07T17:48:13;15.93;;;0.40;;
5678;SDS011;2862;52.560;13.566;2023-05-07T17:58:18;13.13;;;0.30;;
5678;SDS011;2862;52.560;13.566;2023-05-07T18:08:22;12.40;;;0.30;;
5678;SDS011;2862;52.560;13.566;2023-05-07T18:18:29;14.73;;;0.40;;
5678;SDS011;2862;52.560;13.566;2023-05-07T18:28:33;18.10;;;3.53;;
5678;SDS011;2862;52.560;13.566;2023-05-07T18:38:37;15.50;;;0.30;;
5678;SDS011;2862;52.560;13.566;2023-05-07T18:48:43;14.03;;;0.50;;
5678;SDS011;2862;52.560;13.566;2023-05-07T18:58:47;15.83;;;1.30;;
5678;SDS011;2862;52.560;13.566;2023-05-07T19:08:50;13.30;;;0.83;;
5678;SDS011;2862;52.560;13.566;2023-05-07T19:18:55;16.83;;;0.67;;
5678;SDS011;2862;52.560;13.566;2023-05-07T19:28:58;14.43;;;0.63;;
5678;SDS011;2862;52.560;13.566;2023-05-07T19:39:14;13.83;;;0.60;;
5678;SDS011;2862;52.560;13.566;2023-05-07T19:49:17;12.47;;;0.40;;
5678;SDS011;2862;52.560;13.566;2023-05-07T19:59:22;14.67;;;1.00;;
5678;SDS011;2862;52.560;13.566;2023-05-07T20:09:26;33.03;;;10.33;;
5678;SDS011;2862;52.560;13.566;2023-05-07T20:19:30;13.50;;;0.60;;
5678;SDS011;2862;52.560;13.566;2023-05-07T20:29:33;16.10;;;0.90;;
5678;SDS011;2862;52.560;13.566;2023-05-07T20:39:38;14.87;;;1.10;;
5678;SDS011;2862;52.560;13.566;2023-05-07T20:49:41;15.10;;;1.20;;
5678;SDS011;2862;52.560;13.566;2023-05-07T20:59:45;16.00;;;1.33;;
5678;SDS011;2862;52.560;13.566;2023-05-07T21:09:49;14.80;;;1.03;;
5678;SDS011;2862;52.560;13.566;2023-05-07T21:19:54;15.97;;;1.50;;
5678;SDS011;2862;52.560;13.566;2023-05-07T21:29:58;15.30;;;1.93;;
5678;SDS011;2862;52.560;13.566;2023-05-07T21:40:07;14.60;;;1.43;;
5678;SDS011;2862;52.560;13.566;2023-05-07T21:50:11;15.00;;;1.47;;
5678;SDS011;2862;52.560;13.566;2023-05-07T22:00:16;15.10;;;2.00;;
5678;SDS011;2862;52.560;13.566;2023-05-07T22:10:19;17.17;;;2.50;;
5678;SDS011;2862;52.560;13.566;2023-05-07T22:20:24;17.33;;;2.50;;
5678;SDS011;2862;52.560;13.566;2023-05-07T22:30:28;27.43;;;3.03;;
5678;SDS011;2862;52.560;13.566;2023-05-07T22:40:32;18.30;;;2.77;;
5678;SDS011;2862;52.560;13.566;2023-05-07T22:50:36;16.70;;;3.20;;
5678;SDS011;2862;52.560;13.566;2023-05-07T23:00:41;17.20;;;2.80;;
5678;SDS011;2862;52.560;13.566;2023-05-07T23:10:44;18.60;;;3.47;;
5678;SDS011;2862;52.560;13.566;2023-05-07T23:20:48;18.23;;;4.00;;
5678;SDS011;2862;52.560;13.566;2023-05-07T23:30:52;18.40;;;4.60;;
5678;SDS011;2862;52.560;13.566;2023-05-07T23:40:58;18.10;;;4.50;;
5678;SDS011;2862;52.560;13.566;2023-05-07T23:51:02;19.43;;;4.67;;
